TAF MPDA
AMD MPDA 280300Z 2800/2812 CNL=
METAR MPDA
MPDA 280300Z VRB02KT 9999 FEW018 24/24 Q1010=
MPDA 280200Z VRB02KT 9999 FEW018 25/24 Q1010=
MPDA 280100Z 20004KT 9999 FEW018 25/24 Q1009=
MPDA 272300Z 19006KT 9999 FEW016 28/24 Q1008=
MPDA 272200Z 22008KT 9999 SCT016 29/24 Q1007=
WC MPDA
WS MPDA
WV MPDA